Terminal Aerodrome Forecast
Issued by NWS Huntsville, AL

Home | Current Version | Previous Version | Text Only | Print | Product List | Glossary On
Versions: 1 2 3 4 5 6 7 8 9 10 11 12 13 14 15 16 17 18 19 20 21 22 23 24 25 26 27 28
000
FTUS44 KHUN 011513 AAB
TAFHSV
TAF AMD
KHSV 011513Z 0115/0212 20005KT P6SM VCSH OVC010
      TEMPO 0117/0120 VRB15G25KT 4SM TSRA BKN030CB
     FM012000 27006KT P6SM VCTS BKN050CB
      TEMPO 0120/0124 4SM TSRA BKN030CB
     FM020100 19005KT P6SM VCSH BKN030=

USA.gov is the U.S. government's official web portal to all federal, state and local government web resources and services.